Time;durP1;ratioP1;P1;durP2;ratioP2;P2;SDS_P1;SDS_P2;PMS_P1;PMS_P2;Temp;Humidity;BMP_temperature;BMP_pressure;BME280_temperature;BME280_humidity;BME280_pressure;Samples;Min_cycle;Max_cycle;Signal;HPM_P1;HPM_P2
2023/03/27 00:00:29;;;;;;;2.47;1.03;;;16.30;65.10;;;;;;5113798;27;20195;-45
2023/03/27 00:03:01;;;;;;;1.83;1.03;;;16.30;64.60;;;;;;5109279;28;20212;-45
2023/03/27 00:05:30;;;;;;;2.57;1.40;;;16.20;64.60;;;;;;5105989;28;20200;-45
2023/03/27 00:08:10;;;;;;;2.97;1.00;;;16.20;64.50;;;;;;5093435;28;20657;-45
2023/03/27 00:10:41;;;;;;;1.63;1.23;;;16.30;64.80;;;;;;5088473;28;20533;-45
2023/03/27 00:13:12;;;;;;;2.37;0.90;;;16.30;64.70;;;;;;5096173;27;20188;-45
2023/03/27 00:15:53;;;;;;;2.20;0.83;;;16.30;64.60;;;;;;5092213;28;20613;-45
2023/03/27 00:18:26;;;;;;;3.33;1.13;;;16.30;64.70;;;;;;5103983;28;20521;-45
2023/03/27 00:21:02;;;;;;;1.83;0.90;;;16.20;64.40;;;;;;5099210;28;20551;-45
2023/03/27 00:23:32;;;;;;;1.93;0.63;;;16.20;64.50;;;;;;5108382;27;20229;-45
2023/03/27 00:26:00;;;;;;;2.57;1.17;;;16.20;64.60;;;;;;5086961;28;20208;-45
2023/03/27 00:28:33;;;;;;;1.57;0.80;;;16.20;64.70;;;;;;5098417;27;20681;-45
2023/03/27 00:31:13;;;;;;;2.60;1.03;;;16.20;64.70;;;;;;5094076;28;20195;-45
2023/03/27 00:33:50;;;;;;;1.77;0.93;;;16.20;64.70;;;;;;5092232;28;20192;-45
2023/03/27 00:36:22;;;;;;;1.40;1.07;;;16.20;64.70;;;;;;5106175;28;20305;-45
2023/03/27 00:38:52;;;;;;;1.77;0.90;;;16.20;64.70;;;;;;5108465;27;20200;-45
2023/03/27 00:41:21;;;;;;;1.63;1.07;;;16.10;64.70;;;;;;5107121;28;20633;-46
2023/03/27 00:43:57;;;;;;;2.10;1.03;;;16.20;64.70;;;;;;5100978;28;20243;-45
2023/03/27 00:46:41;;;;;;;1.17;0.90;;;16.20;64.70;;;;;;5106997;28;20831;-45
2023/03/27 00:49:11;;;;;;;2.77;1.10;;;16.20;64.70;;;;;;5090112;28;20196;-45
2023/03/27 00:51:48;;;;;;;2.80;1.07;;;16.20;64.80;;;;;;5074724;28;20192;-45
2023/03/27 00:54:25;;;;;;;2.30;0.93;;;16.10;64.70;;;;;;5105224;28;20220;-46
2023/03/27 00:57:18;;;;;;;2.50;0.90;;;16.10;64.60;;;;;;5084259;28;20675;-45
2023/03/27 00:59:52;;;;;;;2.13;1.20;;;16.10;64.60;;;;;;5091265;28;20314;-45
2023/03/27 01:02:22;;;;;;;2.57;0.73;;;16.10;64.70;;;;;;5088303;28;20197;-45
2023/03/27 01:04:55;;;;;;;2.07;0.90;;;16.10;64.60;;;;;;5105951;28;20192;-45
2023/03/27 01:07:24;;;;;;;2.73;1.10;;;16.10;64.60;;;;;;5070539;28;20204;-45
2023/03/27 01:09:55;;;;;;;1.53;0.63;;;16.10;64.60;;;;;;5089590;27;20704;-45
2023/03/27 01:12:51;;;;;;;2.57;0.83;;;16.10;64.60;;;;;;5106669;28;20203;-45
2023/03/27 01:16:13;;;;;;;2.07;0.77;;;16.10;64.60;;;;;;5091583;28;20619;-45
2023/03/27 01:19:21;;;;;;;1.60;0.70;;;16.10;64.60;;;;;;5010536;28;20226;-45
2023/03/27 01:22:11;;;;;;;2.57;0.77;;;16.00;64.60;;;;;;5025567;28;20260;-45
2023/03/27 01:24:55;;;;;;;2.10;1.37;;;16.10;64.80;;;;;;5024917;28;20290;-45
2023/03/27 01:27:46;;;;;;;1.70;0.70;;;16.10;64.80;;;;;;5022987;28;20249;-44
2023/03/27 01:30:30;;;;;;;1.83;1.20;;;16.00;64.60;;;;;;5024872;28;20202;-45
2023/03/27 01:33:37;;;;;;;1.40;0.90;;;16.10;64.60;;;;;;5023469;28;20211;-45
2023/03/27 01:36:51;;;;;;;1.53;0.80;;;16.00;64.60;;;;;;5038144;28;20859;-46
2023/03/27 01:39:47;;;;;;;1.97;0.67;;;16.00;64.50;;;;;;5069123;28;20306;-45
2023/03/27 01:42:37;;;;;;;3.00;0.80;;;16.00;64.70;;;;;;5090512;28;20711;-46
2023/03/27 01:45:21;;;;;;;3.43;1.13;;;16.00;64.70;;;;;;5063883;28;20201;-45
2023/03/27 01:48:09;;;;;;;2.63;1.00;;;16.00;64.60;;;;;;5091020;28;20201;-45
2023/03/27 01:50:44;;;;;;;1.90;0.77;;;16.00;64.50;;;;;;5090893;28;20196;-45
2023/03/27 01:53:46;;;;;;;1.90;1.00;;;16.00;64.60;;;;;;5091282;28;20207;-45
2023/03/27 01:56:36;;;;;;;3.00;0.80;;;16.00;64.50;;;;;;5086577;28;20697;-45
2023/03/27 01:59:11;;;;;;;1.40;0.63;;;16.00;64.40;;;;;;5090216;28;20213;-45
2023/03/27 02:01:49;;;;;;;2.07;1.00;;;16.00;64.50;;;;;;5091646;28;20197;-45
2023/03/27 02:04:26;;;;;;;3.13;1.20;;;16.00;64.50;;;;;;5073134;28;20886;-45
2023/03/27 02:07:11;;;;;;;1.20;0.70;;;16.00;64.50;;;;;;5074018;28;20208;-45
2023/03/27 02:09:50;;;;;;;1.70;0.90;;;15.90;64.50;;;;;;5105292;28;20193;-45
2023/03/27 02:12:44;;;;;;;2.70;0.80;;;16.00;64.50;;;;;;5063666;28;20291;-45
2023/03/27 02:15:21;;;;;;;1.43;0.77;;;15.90;64.40;;;;;;5072666;28;20201;-45
2023/03/27 02:18:06;;;;;;;1.93;0.80;;;15.90;64.50;;;;;;5069599;28;20209;-45
2023/03/27 02:20:39;;;;;;;1.67;0.83;;;15.90;64.30;;;;;;5085077;28;20189;-45
2023/03/27 02:23:11;;;;;;;3.00;0.93;;;16.00;64.40;;;;;;5087466;28;20215;-45
2023/03/27 02:25:48;;;;;;;1.57;0.97;;;15.90;64.40;;;;;;5090672;28;20204;-45
2023/03/27 02:28:57;;;;;;;2.33;0.70;;;15.90;64.40;;;;;;5088121;28;20197;-45
2023/03/27 02:31:50;;;;;;;1.63;0.80;;;15.90;64.40;;;;;;5088607;28;20196;-45
2023/03/27 02:35:07;;;;;;;2.60;0.83;;;15.90;64.40;;;;;;5080964;28;20595;-45
2023/03/27 02:38:10;;;;;;;1.10;0.60;;;15.90;64.30;;;;;;5108944;28;20293;-45
2023/03/27 02:41:07;;;;;;;1.53;0.70;;;15.90;64.30;;;;;;5108121;27;20586;-45
2023/03/27 02:43:58;;;;;;;1.53;0.63;;;15.90;64.30;;;;;;5100265;28;20220;-45
2023/03/27 02:46:39;;;;;;;1.67;0.77;;;15.90;64.30;;;;;;5110746;27;20269;-45
2023/03/27 02:49:25;;;;;;;3.87;1.03;;;15.90;64.30;;;;;;5091391;28;20536;-45
2023/03/27 02:52:23;;;;;;;2.97;0.90;;;15.90;64.30;;;;;;5116285;27;20220;-45
2023/03/27 02:55:03;;;;;;;1.60;0.83;;;15.90;64.80;;;;;;5082236;27;20610;-45
2023/03/27 02:57:40;;;;;;;1.60;0.60;;;15.80;64.10;;;;;;5079272;28;20208;-45
2023/03/27 03:00:26;;;;;;;1.87;0.73;;;15.90;64.10;;;;;;5108731;27;20230;-45
2023/03/27 03:03:20;;;;;;;2.13;0.97;;;15.90;64.10;;;;;;5111125;28;20569;-45
2023/03/27 03:05:55;;;;;;;1.80;0.80;;;15.90;63.80;;;;;;5108774;27;20199;-45
2023/03/27 03:08:29;;;;;;;2.97;1.00;;;15.80;63.30;;;;;;5100761;28;20216;-45
2023/03/27 03:11:05;;;;;;;2.00;0.60;;;15.80;63.10;;;;;;5107342;27;20192;-45
2023/03/27 03:13:32;;;;;;;2.03;0.80;;;15.80;63.20;;;;;;5092487;28;20196;-45
2023/03/27 03:16:03;;;;;;;1.77;0.77;;;15.80;63.30;;;;;;5090147;28;20207;-45
2023/03/27 03:18:33;;;;;;;1.93;0.80;;;15.80;64.00;;;;;;5090760;28;20243;-45
2023/03/27 03:21:05;;;;;;;1.40;0.60;;;15.80;63.40;;;;;;5092348;28;20646;-45
2023/03/27 03:23:34;;;;;;;1.20;0.73;;;15.80;63.50;;;;;;5090385;28;20220;-45
2023/03/27 03:26:05;;;;;;;2.07;0.80;;;15.80;63.60;;;;;;5113949;27;20192;-45
2023/03/27 03:28:34;;;;;;;1.43;0.60;;;15.80;63.60;;;;;;5109856;28;20192;-47
2023/03/27 03:31:09;;;;;;;1.20;0.70;;;15.80;63.70;;;;;;5116056;27;20679;-45
2023/03/27 03:33:39;;;;;;;1.97;0.77;;;15.80;63.70;;;;;;5090116;28;20205;-46
2023/03/27 03:36:13;;;;;;;1.20;0.60;;;15.80;63.70;;;;;;5100117;27;20229;-45
2023/03/27 03:38:46;;;;;;;0.97;0.50;;;15.80;63.70;;;;;;5104729;27;20261;-46
2023/03/27 03:41:16;;;;;;;3.67;0.90;;;15.80;63.80;;;;;;5116899;27;20851;-45
2023/03/27 03:43:46;;;;;;;0.90;0.50;;;15.80;63.70;;;;;;5107666;28;20224;-45
2023/03/27 03:46:18;;;;;;;1.30;0.70;;;15.80;63.80;;;;;;5107039;28;20192;-45
2023/03/27 03:48:49;;;;;;;1.33;0.80;;;15.80;63.80;;;;;;5109742;28;20254;-45
2023/03/27 03:51:18;;;;;;;3.50;1.10;;;15.80;63.80;;;;;;5104980;27;20238;-45
2023/03/27 03:53:48;;;;;;;1.70;0.50;;;15.80;63.80;;;;;;5103723;28;20196;-45
2023/03/27 03:56:28;;;;;;;2.20;0.70;;;15.80;63.80;;;;;;5098324;27;20668;-45
2023/03/27 03:58:57;;;;;;;2.03;0.87;;;15.70;63.80;;;;;;5091640;28;20189;-45
2023/03/27 04:01:27;;;;;;;1.20;0.60;;;15.80;63.80;;;;;;5082407;28;20210;-46
2023/03/27 04:04:02;;;;;;;1.93;0.50;;;15.80;63.80;;;;;;5096073;28;20243;-45
2023/03/27 04:06:31;;;;;;;1.83;0.80;;;15.80;63.80;;;;;;5106436;28;20598;-45
2023/03/27 04:09:02;;;;;;;1.90;1.03;;;15.80;63.80;;;;;;5079428;28;20833;-45
2023/03/27 04:11:34;;;;;;;1.23;1.00;;;15.70;63.80;;;;;;5086109;28;20203;-46
2023/03/27 04:14:05;;;;;;;0.60;0.50;;;15.80;63.90;;;;;;5089573;28;20188;-45
2023/03/27 04:16:35;;;;;;;1.97;0.87;;;15.80;63.80;;;;;;5113139;27;20278;-45
2023/03/27 04:19:18;;;;;;;1.83;0.70;;;15.70;63.80;;;;;;5098471;28;20629;-45
2023/03/27 04:21:51;;;;;;;2.23;0.83;;;15.80;63.80;;;;;;5108881;28;20197;-46
2023/03/27 04:24:22;;;;;;;1.70;0.70;;;15.70;63.70;;;;;;5100142;28;20205;-45
2023/03/27 04:26:57;;;;;;;1.23;0.70;;;15.70;63.70;;;;;;5091654;28;20583;-45
2023/03/27 04:29:29;;;;;;;1.97;0.90;;;15.70;63.70;;;;;;5107804;28;20216;-45
2023/03/27 04:31:59;;;;;;;2.17;0.50;;;15.70;63.70;;;;;;5087900;28;20535;-45
2023/03/27 04:34:29;;;;;;;1.60;0.90;;;15.70;63.60;;;;;;5074205;28;20204;-45
2023/03/27 04:36:59;;;;;;;1.53;0.80;;;15.70;63.60;;;;;;5086628;28;20248;-45
2023/03/27 04:39:35;;;;;;;1.30;0.60;;;15.70;63.60;;;;;;5080105;28;20200;-45
2023/03/27 04:42:08;;;;;;;0.80;0.40;;;15.70;63.60;;;;;;5083035;28;20233;-45
2023/03/27 04:44:39;;;;;;;1.10;0.60;;;15.70;63.50;;;;;;5075961;28;20213;-45
2023/03/27 04:47:09;;;;;;;2.90;0.90;;;15.70;63.50;;;;;;5081198;28;20201;-45
2023/03/27 04:49:41;;;;;;;1.67;0.90;;;15.70;63.50;;;;;;5088765;28;20197;-45
2023/03/27 04:52:13;;;;;;;1.63;0.60;;;15.70;63.50;;;;;;5079649;28;20215;-45
2023/03/27 04:54:45;;;;;;;0.67;0.60;;;15.70;63.50;;;;;;5058722;28;20209;-45
2023/03/27 04:57:17;;;;;;;0.90;0.60;;;15.70;63.50;;;;;;5061057;28;20208;-45
2023/03/27 04:59:46;;;;;;;2.60;0.90;;;15.70;63.40;;;;;;5070512;28;20201;-45
2023/03/27 05:02:17;;;;;;;1.87;0.77;;;15.60;63.40;;;;;;5085080;28;20189;-45
2023/03/27 05:04:49;;;;;;;2.23;0.93;;;15.70;63.30;;;;;;5088045;28;20615;-45
2023/03/27 05:07:20;;;;;;;2.13;0.70;;;15.70;63.20;;;;;;5085165;28;20273;-45
2023/03/27 05:09:51;;;;;;;1.33;0.70;;;15.60;63.20;;;;;;5088311;28;20197;-45
2023/03/27 05:12:20;;;;;;;0.97;0.40;;;15.70;63.20;;;;;;5083544;28;20589;-45
2023/03/27 05:14:50;;;;;;;0.90;0.60;;;15.70;63.10;;;;;;5069852;28;20658;-45
2023/03/27 05:17:31;;;;;;;1.03;0.60;;;15.70;63.00;;;;;;5078059;28;20872;-45
2023/03/27 05:20:00;;;;;;;2.00;0.87;;;15.60;63.00;;;;;;5083824;28;20205;-45
2023/03/27 05:22:32;;;;;;;1.80;1.00;;;15.60;63.00;;;;;;5080724;28;20529;-45
2023/03/27 05:25:04;;;;;;;1.37;0.70;;;15.70;63.00;;;;;;5076261;28;20212;-46
2023/03/27 05:27:36;;;;;;;1.37;0.87;;;15.70;62.90;;;;;;5078015;28;20658;-46
2023/03/27 05:30:07;;;;;;;0.87;0.60;;;15.60;62.90;;;;;;5083480;28;20193;-45
2023/03/27 05:32:39;;;;;;;1.13;0.50;;;15.60;62.80;;;;;;5078023;28;20193;-46
2023/03/27 05:35:10;;;;;;;1.23;1.03;;;15.60;62.70;;;;;;5089817;28;20189;-45
2023/03/27 05:37:46;;;;;;;1.80;1.00;;;15.60;62.60;;;;;;5090351;28;20237;-45
2023/03/27 05:40:24;;;;;;;1.37;0.70;;;15.60;62.60;;;;;;5087916;28;20211;-45
2023/03/27 05:42:59;;;;;;;1.20;1.00;;;15.60;62.50;;;;;;5065386;28;20208;-45
2023/03/27 05:45:33;;;;;;;1.47;1.10;;;15.70;62.50;;;;;;5081303;28;20201;-45
2023/03/27 05:48:04;;;;;;;2.23;1.03;;;15.60;62.30;;;;;;5078609;28;20515;-45
2023/03/27 05:50:36;;;;;;;3.10;0.70;;;15.60;62.30;;;;;;5082898;28;20201;-45
2023/03/27 05:53:09;;;;;;;1.87;0.80;;;15.60;62.10;;;;;;5087596;28;20203;-45
2023/03/27 05:55:40;;;;;;;1.60;0.80;;;15.60;62.20;;;;;;5084117;28;20196;-45
2023/03/27 05:58:10;;;;;;;1.73;0.93;;;15.60;62.00;;;;;;5083953;28;20774;-45
2023/03/27 06:00:42;;;;;;;1.90;0.60;;;15.70;62.10;;;;;;5079116;28;20209;-45
2023/03/27 06:03:14;;;;;;;4.07;1.00;;;15.60;62.00;;;;;;5068306;28;20205;-45
2023/03/27 06:05:43;;;;;;;4.17;1.00;;;15.70;62.00;;;;;;5061236;28;20604;-45
2023/03/27 06:08:12;;;;;;;2.53;0.70;;;15.60;61.90;;;;;;5073228;28;20210;-45
2023/03/27 06:10:44;;;;;;;0.90;0.70;;;15.60;61.80;;;;;;5075367;28;20190;-45
2023/03/27 06:13:14;;;;;;;1.60;1.10;;;15.60;61.70;;;;;;5081286;28;20180;-45
2023/03/27 06:15:45;;;;;;;2.63;1.13;;;15.60;62.40;;;;;;5080318;28;20193;-45
2023/03/27 06:18:19;;;;;;;3.83;0.97;;;15.60;61.80;;;;;;5075546;28;20266;-45
2023/03/27 06:20:50;;;;;;;9.80;0.97;;;15.60;61.70;;;;;;5074687;28;20588;-45
2023/03/27 06:23:23;;;;;;;1.47;0.80;;;15.70;61.70;;;;;;5080138;28;20257;-45
2023/03/27 06:25:52;;;;;;;3.80;1.20;;;15.60;61.60;;;;;;5070785;28;20213;-45
2023/03/27 06:28:25;;;;;;;2.20;0.90;;;15.60;61.60;;;;;;5078785;28;20194;-45
2023/03/27 06:30:56;;;;;;;1.90;0.87;;;15.60;61.50;;;;;;5108498;28;20591;-45
2023/03/27 06:33:28;;;;;;;2.10;0.87;;;15.60;61.50;;;;;;5109957;28;20177;-45
2023/03/27 06:36:01;;;;;;;3.03;1.50;;;15.60;61.60;;;;;;5080519;28;20192;-45
2023/03/27 06:38:37;;;;;;;3.90;1.00;;;15.60;61.60;;;;;;5085931;28;20704;-45
2023/03/27 06:41:07;;;;;;;3.53;0.70;;;15.60;61.60;;;;;;5107926;28;20208;-45
2023/03/27 06:43:35;;;;;;;9.00;2.00;;;15.60;61.90;;;;;;5101276;28;20720;-45
2023/03/27 06:46:06;;;;;;;13.23;2.63;;;15.60;62.40;;;;;;5098450;27;20209;-46
2023/03/27 06:48:36;;;;;;;12.80;3.17;;;15.60;63.00;;;;;;5108959;27;21001;-47
2023/03/27 06:51:06;;;;;;;12.27;3.87;;;15.70;63.60;;;;;;5106995;27;20193;-46
2023/03/27 06:53:38;;;;;;;6.10;2.60;;;15.80;64.00;;;;;;5097152;27;20624;-46
2023/03/27 06:56:12;;;;;;;6.27;2.53;;;15.80;64.20;;;;;;5097178;27;20214;-46
2023/03/27 06:58:42;;;;;;;7.07;2.67;;;15.90;64.20;;;;;;5113244;27;20233;-46
2023/03/27 07:01:13;;;;;;;7.77;2.63;;;16.00;64.20;;;;;;5105784;27;20200;-46
2023/03/27 07:03:43;;;;;;;6.60;2.43;;;16.00;64.00;;;;;;5097912;27;20212;-46
2023/03/27 07:06:15;;;;;;;5.80;2.70;;;16.10;64.00;;;;;;5104953;27;20212;-46
2023/03/27 07:08:47;;;;;;;8.80;2.80;;;16.10;63.90;;;;;;5105371;27;20205;-46
2023/03/27 07:11:17;;;;;;;6.20;2.40;;;16.30;63.50;;;;;;5107125;27;20205;-46
2023/03/27 07:13:49;;;;;;;6.77;2.50;;;16.30;63.40;;;;;;5105408;27;20232;-46
2023/03/27 07:16:19;;;;;;;6.87;2.50;;;16.40;63.20;;;;;;5089899;28;20192;-46
2023/03/27 07:18:50;;;;;;;7.03;2.57;;;16.50;62.80;;;;;;5104231;27;20231;-46
2023/03/27 07:21:23;;;;;;;6.30;2.33;;;16.60;62.60;;;;;;5108756;28;20207;-46
2023/03/27 07:23:56;;;;;;;7.77;2.40;;;16.70;62.50;;;;;;5107130;27;20209;-48
2023/03/27 07:26:33;;;;;;;6.07;2.20;;;16.80;62.30;;;;;;5104898;27;20208;-46
2023/03/27 07:29:09;;;;;;;5.07;2.20;;;16.90;61.80;;;;;;5097578;28;20197;-46
2023/03/27 07:31:38;;;;;;;12.23;2.30;;;16.90;61.30;;;;;;5114059;27;20706;-46
2023/03/27 07:34:26;;;;;;;8.27;2.03;;;17.00;61.20;;;;;;5109684;28;20188;-46
2023/03/27 07:37:04;;;;;;;5.43;2.43;;;17.10;60.70;;;;;;5109627;28;20224;-46
2023/03/27 07:39:48;;;;;;;4.17;1.80;;;17.10;60.30;;;;;;5125858;27;20223;-46
2023/03/27 07:42:18;;;;;;;5.90;1.90;;;17.20;60.30;;;;;;5101081;27;20196;-46
2023/03/27 07:44:50;;;;;;;5.17;1.67;;;17.20;60.40;;;;;;5092071;28;20598;-46
2023/03/27 07:47:21;;;;;;;5.07;1.73;;;17.30;60.00;;;;;;5110376;28;20191;-47
2023/03/27 07:49:51;;;;;;;4.00;1.57;;;17.30;59.70;;;;;;5111855;28;20192;-46
2023/03/27 07:52:20;;;;;;;5.73;2.20;;;17.40;59.70;;;;;;5114206;27;20188;-46
2023/03/27 07:54:50;;;;;;;4.20;1.80;;;17.40;59.40;;;;;;5111798;27;20212;-46
2023/03/27 07:57:21;;;;;;;3.47;1.60;;;17.50;59.20;;;;;;5111750;28;20197;-47
2023/03/27 07:59:51;;;;;;;3.93;1.40;;;17.60;59.30;;;;;;5100160;27;20250;-46
2023/03/27 08:02:22;;;;;;;5.37;1.87;;;17.60;58.90;;;;;;5107501;28;20220;-46
2023/03/27 08:04:51;;;;;;;7.50;1.40;;;17.60;59.00;;;;;;5112114;27;20211;-46
2023/03/27 08:07:21;;;;;;;6.53;1.63;;;17.60;58.60;;;;;;5097950;28;20533;-46
2023/03/27 08:09:56;;;;;;;2.83;1.50;;;17.70;58.80;;;;;;5109801;28;20204;-46
2023/03/27 08:12:29;;;;;;;5.73;1.67;;;17.70;58.80;;;;;;5107075;28;20188;-46
2023/03/27 08:14:58;;;;;;;4.03;2.10;;;17.70;58.40;;;;;;5108747;28;20486;-46
2023/03/27 08:17:27;;;;;;;2.80;1.13;;;17.70;58.40;;;;;;5077554;28;20200;-46
2023/03/27 08:19:57;;;;;;;3.27;1.30;;;17.70;58.10;;;;;;5106311;27;20242;-46
2023/03/27 08:22:27;;;;;;;4.03;1.60;;;17.80;57.60;;;;;;5096108;28;20212;-46
2023/03/27 08:24:56;;;;;;;2.47;1.20;;;17.80;57.70;;;;;;5096644;28;20626;-46
2023/03/27 08:27:27;;;;;;;9.60;1.20;;;17.90;57.70;;;;;;5100149;27;20185;-46
2023/03/27 08:29:58;;;;;;;5.67;1.60;;;17.90;57.90;;;;;;5108318;28;20745;-45
2023/03/27 08:32:30;;;;;;;3.07;1.20;;;17.90;57.50;;;;;;5112714;27;20279;-46
2023/03/27 08:35:02;;;;;;;4.10;1.40;;;17.90;57.60;;;;;;5116558;27;20207;-46
2023/03/27 08:37:34;;;;;;;3.17;1.30;;;17.90;57.20;;;;;;5102132;28;20279;-46
2023/03/27 08:40:11;;;;;;;2.50;1.13;;;18.00;57.50;;;;;;5096413;27;20258;-46
2023/03/27 08:42:45;;;;;;;3.63;0.90;;;18.00;57.00;;;;;;5090056;28;20216;-46
2023/03/27 08:45:57;;;;;;;3.70;1.27;;;18.10;57.10;;;;;;5087269;28;20224;-46
2023/03/27 08:49:16;;;;;;;2.70;1.13;;;18.10;57.40;;;;;;5079589;28;20247;-46
2023/03/27 08:52:09;;;;;;;3.63;0.97;;;18.10;57.00;;;;;;5093462;28;20184;-46
2023/03/27 08:54:39;;;;;;;2.63;1.23;;;18.10;57.00;;;;;;5094589;28;20200;-47
2023/03/27 08:57:21;;;;;;;3.90;1.00;;;18.10;56.40;;;;;;5088873;28;20208;-47
2023/03/27 08:59:56;;;;;;;2.83;1.00;;;18.10;56.30;;;;;;5107939;28;20655;-46
2023/03/27 09:02:52;;;;;;;3.17;1.10;;;18.10;56.10;;;;;;5073480;28;20188;-46
2023/03/27 09:05:45;;;;;;;3.13;0.80;;;18.20;56.10;;;;;;5092428;28;20219;-46
2023/03/27 09:08:30;;;;;;;3.90;0.93;;;18.10;56.10;;;;;;5096140;28;20205;-46
2023/03/27 09:11:48;;;;;;;3.07;0.90;;;18.10;56.30;;;;;;5098603;28;20192;-46
2023/03/27 09:14:31;;;;;;;4.90;1.27;;;18.20;56.60;;;;;;5052907;28;20208;-46
2023/03/27 09:17:20;;;;;;;2.50;0.87;;;18.30;55.80;;;;;;5093957;28;20224;-47
2023/03/27 09:20:05;;;;;;;3.10;0.90;;;18.20;55.90;;;;;;5103750;27;20220;-46
2023/03/27 09:22:44;;;;;;;1.90;0.80;;;18.30;55.40;;;;;;5082400;28;20196;-46
2023/03/27 09:25:34;;;;;;;3.13;1.00;;;18.30;55.20;;;;;;5100434;28;20294;-46
2023/03/27 09:28:22;;;;;;;2.37;1.07;;;18.30;55.60;;;;;;5072742;28;20191;-46
2023/03/27 09:30:56;;;;;;;2.37;1.07;;;18.30;55.30;;;;;;5091050;28;20247;-46
2023/03/27 09:33:40;;;;;;;5.93;0.80;;;18.30;55.90;;;;;;5118535;28;20223;-46
2023/03/27 09:36:12;;;;;;;2.33;0.90;;;18.30;55.50;;;;;;5102411;28;20200;-46
2023/03/27 09:38:49;;;;;;;1.03;0.70;;;18.30;55.10;;;;;;5069972;28;20197;-46
2023/03/27 09:41:38;;;;;;;2.43;0.80;;;18.30;55.20;;;;;;5102743;28;20220;-46
2023/03/27 09:44:30;;;;;;;2.33;1.03;;;18.20;55.80;;;;;;5103349;28;20287;-46
2023/03/27 09:47:37;;;;;;;2.60;0.90;;;18.20;55.50;;;;;;5095286;28;20200;-46
2023/03/27 09:50:41;;;;;;;1.53;0.80;;;18.30;55.20;;;;;;5040555;28;20640;-46
2023/03/27 09:53:17;;;;;;;1.67;1.13;;;18.30;55.30;;;;;;5101142;28;20582;-46
2023/03/27 09:56:06;;;;;;;2.23;0.77;;;18.30;55.40;;;;;;5086916;28;20245;-46
2023/03/27 09:58:45;;;;;;;1.50;0.50;;;18.20;55.10;;;;;;5100643;28;20212;-46
2023/03/27 10:01:37;;;;;;;1.90;0.80;;;18.30;55.20;;;;;;5075827;28;20188;-46
2023/03/27 10:04:20;;;;;;;3.03;0.70;;;18.20;54.60;;;;;;5087938;27;20189;-46
2023/03/27 10:07:07;;;;;;;1.37;0.80;;;18.20;54.50;;;;;;5092231;28;20238;-45
2023/03/27 10:09:39;;;;;;;1.77;0.60;;;18.10;55.00;;;;;;5079068;28;20194;-46
2023/03/27 10:12:17;;;;;;;1.43;0.60;;;18.00;54.20;;;;;;5087183;28;20197;-46
2023/03/27 10:14:50;;;;;;;6.43;0.77;;;17.90;54.20;;;;;;5090973;28;20196;-45
2023/03/27 10:17:38;;;;;;;1.40;0.50;;;17.90;54.40;;;;;;5111152;28;20253;-46
2023/03/27 10:20:31;;;;;;;1.17;0.67;;;17.90;54.60;;;;;;5089406;27;20205;-46
2023/03/27 10:23:22;;;;;;;2.30;0.80;;;17.90;54.50;;;;;;5089573;28;20253;-45
2023/03/27 10:25:57;;;;;;;1.03;0.60;;;17.90;54.90;;;;;;5109604;27;20265;-47
2023/03/27 10:28:34;;;;;;;1.67;0.63;;;17.90;55.00;;;;;;5105773;28;20742;-47
2023/03/27 10:31:12;;;;;;;0.77;0.40;;;17.80;55.00;;;;;;5107215;28;20212;-45
2023/03/27 10:33:45;;;;;;;1.57;0.40;;;17.80;54.90;;;;;;5081351;28;20202;-46
2023/03/27 10:36:16;;;;;;;1.23;0.60;;;17.90;56.10;;;;;;5102973;27;20196;-46
2023/03/27 10:39:00;;;;;;;1.10;0.50;;;18.20;56.40;;;;;;5093258;28;20242;-47
2023/03/27 10:41:34;;;;;;;1.80;0.43;;;18.60;55.40;;;;;;5085555;28;20828;-46
2023/03/27 10:44:19;;;;;;;1.57;0.80;;;19.00;54.70;;;;;;5084435;28;20204;-47
2023/03/27 10:46:52;;;;;;;0.93;0.50;;;19.20;54.30;;;;;;5093873;28;20532;-46
2023/03/27 10:49:39;;;;;;;1.77;0.50;;;19.50;54.00;;;;;;5091063;27;20196;-46
2023/03/27 10:52:45;;;;;;;3.07;0.60;;;19.90;53.50;;;;;;5108162;27;20212;-47
2023/03/27 10:55:32;;;;;;;1.50;0.50;;;20.10;52.70;;;;;;5104753;27;20224;-46
2023/03/27 10:58:22;;;;;;;1.50;0.50;;;20.50;52.40;;;;;;5108317;28;20200;-47
2023/03/27 11:01:07;;;;;;;1.40;0.43;;;20.70;51.80;;;;;;5099158;27;20212;-47
2023/03/27 11:03:51;;;;;;;1.23;0.50;;;20.90;51.50;;;;;;5107308;28;20204;-47
2023/03/27 11:06:37;;;;;;;0.60;0.30;;;21.10;51.10;;;;;;5105965;27;20243;-46
2023/03/27 11:09:22;;;;;;;1.60;0.57;;;21.30;50.90;;;;;;5111091;28;20200;-46
2023/03/27 11:12:13;;;;;;;1.13;0.57;;;21.50;50.90;;;;;;5116168;27;20189;-47
2023/03/27 11:15:11;;;;;;;2.70;0.70;;;21.60;50.10;;;;;;5103682;28;20212;-47
2023/03/27 11:18:27;;;;;;;1.23;0.53;;;21.80;49.70;;;;;;5081464;28;20228;-47
2023/03/27 11:21:36;;;;;;;1.07;0.43;;;21.90;48.40;;;;;;5090921;28;20199;-46
2023/03/27 11:24:18;;;;;;;1.27;0.43;;;21.90;47.90;;;;;;4980501;28;20200;-47
2023/03/27 11:27:05;;;;;;;1.63;0.60;;;22.00;47.30;;;;;;4981237;28;20200;-47
2023/03/27 11:29:57;;;;;;;0.80;0.50;;;22.10;47.40;;;;;;4974355;28;20232;-47
2023/03/27 11:33:08;;;;;;;0.70;0.40;;;22.20;47.80;;;;;;4988087;28;20213;-47
2023/03/27 11:35:43;;;;;;;2.73;0.60;;;22.40;47.00;;;;;;4911064;29;20259;-48
2023/03/27 11:38:27;;;;;;;1.60;0.43;;;22.50;46.80;;;;;;4892375;29;20838;-47
2023/03/27 11:40:58;;;;;;;1.20;0.57;;;22.60;46.50;;;;;;4892748;29;20576;-47
2023/03/27 11:43:29;;;;;;;2.13;0.77;;;22.70;45.90;;;;;;4889630;29;20348;-47
2023/03/27 11:46:37;;;;;;;1.00;0.40;;;22.70;45.50;;;;;;4900856;28;20232;-47
2023/03/27 11:49:22;;;;;;;1.93;0.50;;;22.90;45.80;;;;;;4962438;28;20301;-47
2023/03/27 11:52:24;;;;;;;2.27;0.77;;;23.10;46.20;;;;;;5037915;28;20193;-47
2023/03/27 11:55:08;;;;;;;2.33;0.60;;;23.20;46.60;;;;;;5094047;28;20224;-47
2023/03/27 11:57:58;;;;;;;0.70;0.50;;;23.30;46.50;;;;;;5088712;28;20193;-47
2023/03/27 12:00:48;;;;;;;3.60;0.50;;;23.40;46.50;;;;;;5071598;28;20555;-47
2023/03/27 12:03:44;;;;;;;0.90;0.43;;;23.60;46.20;;;;;;5094705;28;20641;-47
2023/03/27 12:06:49;;;;;;;3.00;0.67;;;23.70;46.00;;;;;;5087846;28;20224;-47
2023/03/27 12:09:49;;;;;;;1.87;0.50;;;23.90;46.10;;;;;;5083963;28;20205;-47
2023/03/27 12:12:51;;;;;;;0.83;0.53;;;23.90;45.80;;;;;;5087147;28;20926;-47
2023/03/27 12:15:46;;;;;;;0.80;0.43;;;24.10;45.70;;;;;;5088530;28;20204;-48
2023/03/27 12:18:49;;;;;;;1.70;0.80;;;24.20;45.40;;;;;;5085004;28;20193;-47
2023/03/27 12:22:02;;;;;;;1.47;0.50;;;24.30;44.80;;;;;;5093715;28;20205;-46
2023/03/27 12:25:14;;;;;;;0.90;0.77;;;24.50;45.00;;;;;;5086039;28;20270;-47
2023/03/27 12:28:01;;;;;;;1.03;0.47;;;24.60;45.60;;;;;;5088253;28;20266;-47
2023/03/27 12:31:03;;;;;;;1.30;0.63;;;24.80;44.90;;;;;;5095083;28;20677;-47
2023/03/27 12:34:02;;;;;;;1.90;0.50;;;24.70;45.00;;;;;;5088450;28;20204;-47
2023/03/27 12:36:38;;;;;;;2.67;0.77;;;24.30;44.40;;;;;;5102157;28;20210;-46
2023/03/27 12:39:26;;;;;;;1.40;0.80;;;24.10;44.10;;;;;;5106767;28;20591;-46
2023/03/27 12:41:56;;;;;;;1.97;0.60;;;23.90;44.70;;;;;;5081809;28;20200;-47
2023/03/27 12:44:54;;;;;;;1.57;0.80;;;23.70;45.20;;;;;;5105492;28;20205;-46
2023/03/27 12:47:28;;;;;;;1.60;0.70;;;23.50;45.60;;;;;;5108671;28;20637;-47
2023/03/27 12:50:00;;;;;;;0.97;0.50;;;23.40;46.10;;;;;;5088474;28;20204;-47
2023/03/27 12:52:29;;;;;;;0.80;0.50;;;23.30;46.80;;;;;;5071620;28;20224;-47
2023/03/27 12:55:18;;;;;;;4.30;0.60;;;23.20;46.80;;;;;;5105719;28;20208;-47
2023/03/27 12:57:48;;;;;;;1.57;0.70;;;23.10;46.70;;;;;;5098941;28;20540;-47
2023/03/27 13:00:24;;;;;;;1.57;0.50;;;22.90;46.70;;;;;;5105262;28;20258;-47
2023/03/27 13:03:37;;;;;;;1.10;0.60;;;22.80;47.50;;;;;;5092966;28;20196;-47
2023/03/27 13:06:40;;;;;;;1.67;0.60;;;22.70;47.50;;;;;;5102680;27;20216;-47
2023/03/27 13:09:21;;;;;;;3.83;0.90;;;22.60;47.90;;;;;;5108503;28;20521;-48
2023/03/27 13:12:19;;;;;;;2.47;0.50;;;22.50;48.10;;;;;;5093535;28;20216;-47
2023/03/27 13:14:55;;;;;;;2.03;0.80;;;22.50;48.20;;;;;;5110972;28;20195;-47
2023/03/27 13:17:48;;;;;;;1.33;0.50;;;22.50;48.20;;;;;;5110165;28;20200;-47
2023/03/27 13:20:52;;;;;;;0.80;0.43;;;22.70;48.30;;;;;;5109792;28;20982;-46
2023/03/27 13:24:09;;;;;;;2.57;0.60;;;22.90;48.00;;;;;;5116463;27;20192;-47
2023/03/27 13:27:12;;;;;;;1.00;0.60;;;23.70;48.00;;;;;;5063014;28;20888;-47
2023/03/27 13:29:48;;;;;;;0.83;0.50;;;23.20;47.80;;;;;;5105726;28;20709;-46
2023/03/27 13:32:37;;;;;;;1.07;0.50;;;23.30;47.60;;;;;;5086132;28;20203;-46
2023/03/27 13:35:24;;;;;;;2.70;0.60;;;23.60;47.30;;;;;;5103509;28;20196;-46
2023/03/27 13:38:01;;;;;;;1.13;0.63;;;23.70;47.00;;;;;;5105903;27;20240;-46
2023/03/27 13:40:37;;;;;;;1.97;0.80;;;23.80;45.60;;;;;;5112715;28;20214;-46
2023/03/27 13:43:29;;;;;;;2.13;0.70;;;23.90;44.90;;;;;;5101206;28;20199;-47
2023/03/27 13:46:13;;;;;;;2.33;0.60;;;24.00;45.00;;;;;;5089325;28;20220;-47
2023/03/27 13:49:19;;;;;;;3.57;0.77;;;24.10;44.40;;;;;;5110410;27;20199;-47
2023/03/27 13:52:23;;;;;;;1.57;0.70;;;24.20;44.30;;;;;;5110923;28;20196;-46